Time;durP1;ratioP1;P1;durP2;ratioP2;P2;SDS_P1;SDS_P2;PMS_P1;PMS_P2;Temp;Humidity;BMP_temperature;BMP_pressure;BME280_temperature;BME280_humidity;BME280_pressure;Samples;Min_cycle;Max_cycle;Signal;HPM_P1;HPM_P2
2021/04/28 00:00:10;;;;;;;30.70;27.55;;;;;;;;;;5013456;28;20281;-60
2021/04/28 00:02:38;;;;;;;32.83;29.42;;;;;;;;;;5013492;28;20254;-59
2021/04/28 00:05:06;;;;;;;32.90;29.60;;;;;;;;;;5014131;28;20199;-59
2021/04/28 00:07:33;;;;;;;34.35;30.75;;;;;;;;;;5013800;28;20207;-59
2021/04/28 00:09:59;;;;;;;30.48;27.55;;;;;;;;;;5013859;28;20596;-59
2021/04/28 00:12:26;;;;;;;30.17;27.27;;;;;;;;;;5013690;28;20675;-59
2021/04/28 00:14:53;;;;;;;29.73;26.67;;;;;;;;;;5013356;28;20666;-59
2021/04/28 00:17:20;;;;;;;26.55;24.13;;;;;;;;;;5016510;28;20206;-59
2021/04/28 00:19:48;;;;;;;26.38;24.08;;;;;;;;;;5014456;28;20225;-60
2021/04/28 00:22:14;;;;;;;26.00;23.48;;;;;;;;;;5013959;28;20207;-60
2021/04/28 00:24:42;;;;;;;24.70;22.30;;;;;;;;;;5017413;28;20210;-60
2021/04/28 00:27:08;;;;;;;22.73;20.52;;;;;;;;;;5018808;28;20209;-59
2021/04/28 00:29:35;;;;;;;22.95;20.42;;;;;;;;;;5017378;28;20703;-59
2021/04/28 00:32:02;;;;;;;21.77;19.48;;;;;;;;;;5017610;28;20201;-59
2021/04/28 00:34:28;;;;;;;21.42;18.15;;;;;;;;;;5017588;28;20209;-59
2021/04/28 00:36:56;;;;;;;21.98;18.25;;;;;;;;;;5017495;28;20205;-59
2021/04/28 00:39:23;;;;;;;20.35;16.73;;;;;;;;;;5017037;28;20219;-59
2021/04/28 00:41:50;;;;;;;19.58;17.45;;;;;;;;;;5017586;28;20252;-59
2021/04/28 00:44:17;;;;;;;19.38;16.73;;;;;;;;;;5017330;28;20207;-59
2021/04/28 00:46:44;;;;;;;19.35;15.63;;;;;;;;;;5017253;28;20203;-59
2021/04/28 00:49:10;;;;;;;18.88;16.88;;;;;;;;;;5017003;28;20283;-60
2021/04/28 00:51:37;;;;;;;18.42;15.35;;;;;;;;;;5017217;28;20207;-59
2021/04/28 00:54:05;;;;;;;19.42;16.63;;;;;;;;;;5016881;28;20260;-59
2021/04/28 00:56:32;;;;;;;18.77;16.08;;;;;;;;;;5017167;28;20206;-60
2021/04/28 00:59:00;;;;;;;25.50;16.92;;;;;;;;;;5017020;28;20283;-59
2021/04/28 01:01:27;;;;;;;21.05;16.00;;;;;;;;;;5017003;28;20206;-60
2021/04/28 01:03:54;;;;;;;18.25;14.18;;;;;;;;;;5017033;28;20257;-59
2021/04/28 01:06:21;;;;;;;17.83;14.13;;;;;;;;;;5016671;28;20298;-59
2021/04/28 01:08:49;;;;;;;18.63;14.73;;;;;;;;;;5016693;28;20256;-60
2021/04/28 01:11:16;;;;;;;17.33;12.93;;;;;;;;;;5016818;28;20206;-59
2021/04/28 01:13:43;;;;;;;16.65;12.88;;;;;;;;;;5016721;28;20212;-59
2021/04/28 01:16:10;;;;;;;15.85;13.25;;;;;;;;;;5017187;28;20298;-58
2021/04/28 01:18:37;;;;;;;22.67;12.45;;;;;;;;;;5017109;28;20650;-59
2021/04/28 01:21:04;;;;;;;16.75;13.98;;;;;;;;;;5017107;28;20585;-58
2021/04/28 01:23:32;;;;;;;22.98;14.52;;;;;;;;;;5017213;28;20209;-59
2021/04/28 01:25:59;;;;;;;23.08;13.52;;;;;;;;;;5017202;28;20213;-59
2021/04/28 01:28:26;;;;;;;23.20;15.25;;;;;;;;;;5016440;28;20276;-59
2021/04/28 01:30:56;;;;;;;18.80;14.40;;;;;;;;;;5016196;28;20653;-59
2021/04/28 01:33:24;;;;;;;21.90;14.68;;;;;;;;;;5016716;28;20189;-59
2021/04/28 01:35:52;;;;;;;17.65;13.80;;;;;;;;;;5015684;28;20258;-59
2021/04/28 01:38:19;;;;;;;18.25;14.25;;;;;;;;;;5016317;28;20205;-59
2021/04/28 01:40:47;;;;;;;20.63;14.55;;;;;;;;;;5016517;28;20222;-59
2021/04/28 01:43:14;;;;;;;18.63;14.70;;;;;;;;;;5016512;28;20209;-59
2021/04/28 01:45:41;;;;;;;17.70;12.98;;;;;;;;;;5017180;28;20202;-59
2021/04/28 01:48:10;;;;;;;25.48;13.82;;;;;;;;;;5020126;28;20233;-59
2021/04/28 01:50:37;;;;;;;18.60;13.32;;;;;;;;;;5017471;28;20232;-59
2021/04/28 01:53:04;;;;;;;21.00;14.00;;;;;;;;;;5016526;28;20210;-59
2021/04/28 01:55:33;;;;;;;22.17;14.27;;;;;;;;;;5016078;28;20205;-59
2021/04/28 01:58:02;;;;;;;19.45;12.85;;;;;;;;;;5015921;28;20201;-59
2021/04/28 02:00:29;;;;;;;17.55;12.75;;;;;;;;;;5015761;28;20226;-60
2021/04/28 02:02:56;;;;;;;17.27;11.80;;;;;;;;;;5015984;28;20209;-59
2021/04/28 02:05:23;;;;;;;20.95;12.57;;;;;;;;;;5016137;28;20200;-60
2021/04/28 02:07:50;;;;;;;18.50;12.88;;;;;;;;;;5016057;28;20573;-60
2021/04/28 02:10:17;;;;;;;21.05;12.27;;;;;;;;;;5015750;28;20712;-59
2021/04/28 02:12:44;;;;;;;20.08;13.93;;;;;;;;;;5015875;28;20204;-60
2021/04/28 02:15:12;;;;;;;19.40;14.93;;;;;;;;;;5015643;28;20213;-59
2021/04/28 02:17:39;;;;;;;24.80;14.10;;;;;;;;;;5015514;28;20206;-59
2021/04/28 02:20:09;;;;;;;17.30;12.25;;;;;;;;;;5015177;28;20230;-59
2021/04/28 02:22:37;;;;;;;19.42;13.30;;;;;;;;;;5015747;28;20212;-59
2021/04/28 02:25:04;;;;;;;19.77;13.00;;;;;;;;;;5015249;28;20199;-59
2021/04/28 02:27:31;;;;;;;20.40;12.35;;;;;;;;;;5015109;28;20253;-59
2021/04/28 02:29:57;;;;;;;18.45;12.45;;;;;;;;;;5015478;28;20225;-59
2021/04/28 02:32:25;;;;;;;21.42;14.10;;;;;;;;;;5015513;28;20202;-59
2021/04/28 02:34:52;;;;;;;20.67;11.48;;;;;;;;;;5015740;28;20207;-59
2021/04/28 02:37:20;;;;;;;18.77;12.02;;;;;;;;;;5015899;28;20259;-59
2021/04/28 02:39:52;;;;;;;20.95;11.70;;;;;;;;;;5015129;28;20717;-59
2021/04/28 02:42:19;;;;;;;17.08;11.07;;;;;;;;;;5015612;28;20263;-59
2021/04/28 02:44:47;;;;;;;16.83;9.52;;;;;;;;;;5015373;28;20206;-59
2021/04/28 02:47:14;;;;;;;16.42;8.25;;;;;;;;;;5014571;28;20203;-59
2021/04/28 02:49:43;;;;;;;13.18;6.45;;;;;;;;;;5015345;28;20549;-59
2021/04/28 02:52:10;;;;;;;7.18;5.18;;;;;;;;;;5015285;28;20212;-59
2021/04/28 02:54:37;;;;;;;7.68;4.55;;;;;;;;;;5015140;28;20206;-59
2021/04/28 02:57:04;;;;;;;11.35;4.15;;;;;;;;;;5014926;28;20217;-59
2021/04/28 02:59:30;;;;;;;4.70;3.83;;;;;;;;;;5014775;28;20221;-59
2021/04/28 03:01:57;;;;;;;4.78;3.20;;;;;;;;;;5014315;28;20675;-59
2021/04/28 03:04:24;;;;;;;5.13;3.50;;;;;;;;;;5014407;28;20206;-60
2021/04/28 03:06:52;;;;;;;3.70;3.17;;;;;;;;;;5014344;28;20681;-59
2021/04/28 03:09:19;;;;;;;5.72;3.13;;;;;;;;;;5014635;28;20283;-60
2021/04/28 03:11:46;;;;;;;5.97;3.90;;;;;;;;;;5014332;28;20679;-59
2021/04/28 03:14:13;;;;;;;4.72;3.25;;;;;;;;;;5014834;28;20209;-59
2021/04/28 03:16:41;;;;;;;5.40;3.42;;;;;;;;;;5014428;28;20210;-59
2021/04/28 03:19:08;;;;;;;5.00;3.65;;;;;;;;;;5014619;28;20253;-58
2021/04/28 03:21:37;;;;;;;4.10;3.60;;;;;;;;;;5016403;28;20232;-58
2021/04/28 03:24:05;;;;;;;8.23;4.13;;;;;;;;;;5019125;28;20209;-58
2021/04/28 03:26:32;;;;;;;6.05;3.85;;;;;;;;;;5014756;28;20253;-59
2021/04/28 03:28:59;;;;;;;5.03;3.60;;;;;;;;;;5014408;28;20229;-59
2021/04/28 03:31:26;;;;;;;3.80;3.10;;;;;;;;;;5013932;28;20205;-59
2021/04/28 03:33:52;;;;;;;4.18;3.25;;;;;;;;;;5014254;28;20235;-59
2021/04/28 03:36:19;;;;;;;5.97;2.72;;;;;;;;;;5014219;28;20213;-59
2021/04/28 03:38:46;;;;;;;6.15;3.60;;;;;;;;;;5014359;28;20248;-58
2021/04/28 03:41:14;;;;;;;6.47;3.63;;;;;;;;;;5014087;28;20226;-58
2021/04/28 03:43:41;;;;;;;5.22;4.07;;;;;;;;;;5014068;28;20752;-59
2021/04/28 03:46:09;;;;;;;5.22;3.10;;;;;;;;;;5013852;28;20209;-58
2021/04/28 03:48:36;;;;;;;4.13;3.60;;;;;;;;;;5013953;28;20220;-60
2021/04/28 03:51:03;;;;;;;5.32;3.45;;;;;;;;;;5014327;28;20210;-59
2021/04/28 03:53:30;;;;;;;4.97;3.50;;;;;;;;;;5014600;28;20212;-59
2021/04/28 03:55:57;;;;;;;4.00;3.58;;;;;;;;;;5014154;28;20574;-59
2021/04/28 03:58:25;;;;;;;6.65;3.58;;;;;;;;;;5013267;28;20786;-60
2021/04/28 04:00:52;;;;;;;5.25;3.30;;;;;;;;;;5013902;28;20255;-59
2021/04/28 04:03:18;;;;;;;5.85;3.63;;;;;;;;;;5013867;28;20588;-59
2021/04/28 04:08:02;;;;;;;8.30;4.03;;;;;;;;;;5112409;27;20594;-59
2021/04/28 04:10:29;;;;;;;10.00;4.10;;;;;;;;;;5111304;28;20250;-59
2021/04/28 04:12:56;;;;;;;4.53;3.30;;;;;;;;;;5111372;28;20204;-58
2021/04/28 04:15:23;;;;;;;6.70;5.53;;;;;;;;;;5111494;28;20196;-58
2021/04/28 04:17:50;;;;;;;6.47;4.45;;;;;;;;;;5111787;28;20268;-58
2021/04/28 04:20:17;;;;;;;8.55;4.65;;;;;;;;;;5111427;28;20222;-60
2021/04/28 04:22:44;;;;;;;9.07;4.85;;;;;;;;;;5112734;28;20226;-60
2021/04/28 04:25:11;;;;;;;12.20;5.13;;;;;;;;;;5110947;28;20740;-60
2021/04/28 04:27:39;;;;;;;13.57;5.88;;;;;;;;;;5110875;28;20216;-58
2021/04/28 04:30:07;;;;;;;6.82;5.20;;;;;;;;;;5111197;28;20227;-59
2021/04/28 04:32:34;;;;;;;8.93;5.32;;;;;;;;;;5110744;28;20234;-60
2021/04/28 04:35:00;;;;;;;5.10;4.25;;;;;;;;;;5111461;28;20196;-59
2021/04/28 04:37:27;;;;;;;7.70;5.00;;;;;;;;;;5111435;28;20196;-60
2021/04/28 04:39:54;;;;;;;6.57;4.55;;;;;;;;;;5110741;28;20715;-60
2021/04/28 04:42:22;;;;;;;6.82;4.65;;;;;;;;;;5110809;28;20200;-59
2021/04/28 04:44:48;;;;;;;8.98;5.05;;;;;;;;;;5112139;28;20199;-60
2021/04/28 04:47:15;;;;;;;5.88;4.57;;;;;;;;;;5112719;28;20227;-59
2021/04/28 04:49:43;;;;;;;6.53;4.50;;;;;;;;;;5112738;28;20224;-59
2021/04/28 04:52:09;;;;;;;9.77;6.00;;;;;;;;;;5111679;28;20199;-59
2021/04/28 04:54:36;;;;;;;8.55;5.38;;;;;;;;;;5111399;28;20249;-59
2021/04/28 04:57:03;;;;;;;9.23;4.90;;;;;;;;;;5110885;28;20207;-60
2021/04/28 04:59:31;;;;;;;9.20;5.72;;;;;;;;;;5111519;28;20277;-59
2021/04/28 05:01:58;;;;;;;9.77;5.35;;;;;;;;;;5112050;28;20196;-60
2021/04/28 05:04:25;;;;;;;11.52;5.60;;;;;;;;;;5112380;28;20208;-58
2021/04/28 05:06:52;;;;;;;8.93;5.50;;;;;;;;;;5110941;28;20224;-60
2021/04/28 05:09:20;;;;;;;10.88;5.80;;;;;;;;;;5110909;28;20230;-60
2021/04/28 05:11:46;;;;;;;13.13;6.60;;;;;;;;;;5110958;28;20204;-59
2021/04/28 05:14:13;;;;;;;8.90;6.68;;;;;;;;;;5111096;28;20200;-59
2021/04/28 05:16:41;;;;;;;14.63;8.05;;;;;;;;;;5110381;28;20218;-61
2021/04/28 05:19:08;;;;;;;12.35;7.38;;;;;;;;;;5098795;28;20220;-59
2021/04/28 05:21:34;;;;;;;11.35;7.65;;;;;;;;;;5096865;28;20729;-58
2021/04/28 05:24:01;;;;;;;11.77;7.03;;;;;;;;;;5096905;28;20559;-60
2021/04/28 05:26:28;;;;;;;9.60;5.78;;;;;;;;;;5096637;28;20763;-59
2021/04/28 05:28:55;;;;;;;13.30;6.57;;;;;;;;;;5096934;28;20232;-59
2021/04/28 05:31:22;;;;;;;8.77;6.70;;;;;;;;;;5096712;28;20208;-59
2021/04/28 05:33:49;;;;;;;11.13;7.40;;;;;;;;;;5096758;28;20201;-60
2021/04/28 05:36:16;;;;;;;12.75;7.10;;;;;;;;;;5096776;28;20201;-59
2021/04/28 05:38:43;;;;;;;12.30;6.82;;;;;;;;;;5096842;28;20224;-60
2021/04/28 05:41:09;;;;;;;13.88;7.25;;;;;;;;;;5097179;28;20631;-60
2021/04/28 05:43:36;;;;;;;14.23;7.78;;;;;;;;;;5097183;28;20196;-59
2021/04/28 05:46:03;;;;;;;13.95;8.05;;;;;;;;;;5096606;28;20270;-59
2021/04/28 05:48:30;;;;;;;12.13;7.28;;;;;;;;;;5100184;28;20208;-60
2021/04/28 05:50:57;;;;;;;10.98;7.50;;;;;;;;;;5098590;28;20204;-59
2021/04/28 05:53:24;;;;;;;17.48;11.93;;;;;;;;;;5097410;28;20299;-60
2021/04/28 05:55:51;;;;;;;17.38;10.95;;;;;;;;;;5099916;28;20208;-60
2021/04/28 05:58:18;;;;;;;14.52;10.50;;;;;;;;;;5098327;28;20338;-60
2021/04/28 06:00:44;;;;;;;13.95;9.77;;;;;;;;;;5097068;28;20235;-60
2021/04/28 06:03:11;;;;;;;13.35;10.13;;;;;;;;;;5097382;28;20205;-60
2021/04/28 06:05:38;;;;;;;18.75;11.60;;;;;;;;;;5096105;28;20245;-60
2021/04/28 06:08:06;;;;;;;13.43;10.65;;;;;;;;;;5096176;28;20213;-59
2021/04/28 06:10:32;;;;;;;14.75;10.65;;;;;;;;;;5096596;28;20223;-60
2021/04/28 06:12:59;;;;;;;13.93;10.40;;;;;;;;;;5096924;28;20227;-59
2021/04/28 06:15:26;;;;;;;10.77;9.48;;;;;;;;;;5099070;28;20209;-60
2021/04/28 06:17:53;;;;;;;11.15;8.43;;;;;;;;;;5112999;28;20193;-60
2021/04/28 06:20:19;;;;;;;10.15;8.38;;;;;;;;;;5106113;28;20224;-60
2021/04/28 06:22:46;;;;;;;20.63;8.02;;;;;;;;;;5102175;28;20254;-60
2021/04/28 06:25:15;;;;;;;10.00;7.25;;;;;;;;;;5102779;28;20219;-60
2021/04/28 06:27:42;;;;;;;8.88;7.93;;;;;;;;;;5102246;28;20220;-59
2021/04/28 06:30:10;;;;;;;11.18;8.18;;;;;;;;;;5100025;28;20224;-59
2021/04/28 06:32:37;;;;;;;11.75;8.95;;;;;;;;;;5100001;28;20231;-61
2021/04/28 06:35:04;;;;;;;11.57;8.88;;;;;;;;;;5100313;28;20296;-60
2021/04/28 06:37:31;;;;;;;11.15;8.10;;;;;;;;;;5100090;28;20231;-59
2021/04/28 06:39:58;;;;;;;8.77;7.47;;;;;;;;;;5099508;28;20223;-58
2021/04/28 06:42:25;;;;;;;10.45;7.88;;;;;;;;;;5102919;28;20215;-60
2021/04/28 06:44:52;;;;;;;10.38;8.18;;;;;;;;;;5103017;28;20201;-60
2021/04/28 06:47:19;;;;;;;11.55;7.80;;;;;;;;;;5102105;28;20224;-59
2021/04/28 06:49:46;;;;;;;13.27;6.63;;;;;;;;;;5102344;28;20225;-59
2021/04/28 06:52:12;;;;;;;10.63;6.05;;;;;;;;;;5102226;28;20200;-59
2021/04/28 06:54:39;;;;;;;7.30;6.60;;;;;;;;;;5103353;28;20196;-60
2021/04/28 06:57:06;;;;;;;9.95;5.53;;;;;;;;;;5100329;28;20196;-57
2021/04/28 06:59:34;;;;;;;7.72;6.78;;;;;;;;;;5100388;28;20216;-58
2021/04/28 07:02:00;;;;;;;9.45;6.78;;;;;;;;;;5099801;28;20667;-59
2021/04/28 07:04:27;;;;;;;10.57;6.20;;;;;;;;;;5097913;28;20212;-59
2021/04/28 07:06:54;;;;;;;7.43;6.70;;;;;;;;;;5096741;28;20224;-61
2021/04/28 07:09:21;;;;;;;11.10;6.90;;;;;;;;;;5097375;28;20246;-59
2021/04/28 07:11:47;;;;;;;7.70;6.93;;;;;;;;;;5097149;28;20204;-59
2021/04/28 07:14:16;;;;;;;6.93;5.63;;;;;;;;;;5096517;28;20204;-60
2021/04/28 07:16:43;;;;;;;7.95;6.30;;;;;;;;;;5095702;28;20287;-59
2021/04/28 07:19:10;;;;;;;6.90;5.72;;;;;;;;;;5095791;28;20228;-60
2021/04/28 07:21:37;;;;;;;9.38;5.55;;;;;;;;;;5095650;28;20667;-58
2021/04/28 07:24:05;;;;;;;6.18;5.20;;;;;;;;;;5095427;28;20206;-60
2021/04/28 07:26:31;;;;;;;6.80;5.78;;;;;;;;;;5094910;28;20315;-60
2021/04/28 07:28:59;;;;;;;5.60;5.10;;;;;;;;;;5095020;28;20249;-60
2021/04/28 07:31:26;;;;;;;6.93;5.80;;;;;;;;;;5094784;28;20200;-61
2021/04/28 07:33:54;;;;;;;6.75;5.38;;;;;;;;;;5095197;28;20571;-61
2021/04/28 07:36:20;;;;;;;6.55;5.00;;;;;;;;;;5101519;28;20266;-59
2021/04/28 07:38:47;;;;;;;8.05;5.43;;;;;;;;;;5113142;28;20220;-59
2021/04/28 07:41:14;;;;;;;10.45;5.35;;;;;;;;;;5113249;28;20257;-60
2021/04/28 07:43:41;;;;;;;6.45;4.95;;;;;;;;;;5114057;28;20226;-61
2021/04/28 07:46:08;;;;;;;10.30;6.50;;;;;;;;;;5103433;28;20222;-60
2021/04/28 07:48:34;;;;;;;7.88;5.00;;;;;;;;;;5094605;28;20242;-59
2021/04/28 07:51:02;;;;;;;6.50;5.90;;;;;;;;;;5093863;28;20643;-59
2021/04/28 07:53:29;;;;;;;6.17;5.47;;;;;;;;;;5093856;28;20446;-61
2021/04/28 07:55:56;;;;;;;8.50;5.90;;;;;;;;;;5094390;28;20446;-61
2021/04/28 07:58:23;;;;;;;10.30;5.63;;;;;;;;;;5094231;28;20434;-60
2021/04/28 08:00:49;;;;;;;9.27;6.73;;;;;;;;;;5094739;28;20443;-61
2021/04/28 08:03:16;;;;;;;6.10;5.60;;;;;;;;;;5094165;28;20438;-59
2021/04/28 08:05:43;;;;;;;7.30;5.73;;;;;;;;;;5094323;28;20450;-60
2021/04/28 08:08:10;;;;;;;6.30;5.70;;;;;;;;;;5094011;28;20818;-58
2021/04/28 08:10:37;;;;;;;8.47;5.90;;;;;;;;;;5094292;28;20462;-61
2021/04/28 08:13:08;;;;;;;7.40;6.60;;;;;;;;;;5094614;28;20453;-60
2021/04/28 08:15:35;;;;;;;6.80;6.10;;;;;;;;;;5095507;28;20442;-60
2021/04/28 08:18:02;;;;;;;6.77;5.70;;;;;;;;;;5095045;28;20442;-60
2021/04/28 08:20:28;;;;;;;9.80;5.90;;;;;;;;;;5095924;28;20459;-60
2021/04/28 08:22:55;;;;;;;6.63;5.70;;;;;;;;;;5096009;28;20451;-59
2021/04/28 08:25:23;;;;;;;7.50;5.73;;;;;;;;;;5095840;28;20818;-63
2021/04/28 08:27:50;;;;;;;8.70;5.53;;;;;;;;;;5094846;28;20801;-60
2021/04/28 08:30:17;;;;;;;9.60;6.67;;;;;;;;;;5095463;28;20462;-59
2021/04/28 08:32:44;;;;;;;11.53;5.80;;;;;;;;;;5095846;28;20526;-58
2021/04/28 08:35:14;;;;;;;6.90;6.20;;;;;;;;;;5096394;28;20453;-60
2021/04/28 08:37:41;;;;;;;7.70;6.00;;;;;;;;;;5098328;28;20446;-60
2021/04/28 08:40:08;;;;;;;8.57;6.87;;;;;;;;;;5098888;28;20466;-61
2021/04/28 08:42:36;;;;;;;12.67;7.23;;;;;;;;;;5098761;28;20447;-59
2021/04/28 08:45:03;;;;;;;19.47;6.93;;;;;;;;;;5098283;28;20988;-60
2021/04/28 08:47:29;;;;;;;10.27;5.77;;;;;;;;;;5094874;28;21032;-60
2021/04/28 08:49:56;;;;;;;7.33;6.60;;;;;;;;;;5094049;28;20471;-60
2021/04/28 08:52:23;;;;;;;11.17;7.10;;;;;;;;;;5093856;28;20504;-60
2021/04/28 08:54:50;;;;;;;11.53;6.80;;;;;;;;;;5097175;28;20451;-59
2021/04/28 08:57:17;;;;;;;11.20;7.80;;;;;;;;;;5097889;28;20960;-59
2021/04/28 08:59:45;;;;;;;8.73;7.00;;;;;;;;;;5098944;28;20470;-60
2021/04/28 09:02:13;;;;;;;9.97;7.10;;;;;;;;;;5099062;28;20478;-60
2021/04/28 09:04:39;;;;;;;9.87;7.90;;;;;;;;;;5098632;28;20493;-58
2021/04/28 09:07:06;;;;;;;8.90;8.00;;;;;;;;;;5097590;28;20937;-59
2021/04/28 09:09:33;;;;;;;13.83;7.70;;;;;;;;;;5098151;28;20998;-60
2021/04/28 09:12:00;;;;;;;12.27;7.93;;;;;;;;;;5097958;28;20443;-61
2021/04/28 09:14:28;;;;;;;9.03;7.33;;;;;;;;;;5097115;28;20929;-59
2021/04/28 09:17:02;;;;;;;13.43;7.53;;;;;;;;;;5097704;28;20482;-59
2021/04/28 09:19:32;;;;;;;16.70;8.90;;;;;;;;;;5096673;28;21003;-60
2021/04/28 09:22:01;;;;;;;12.40;9.60;;;;;;;;;;5097313;28;20450;-60
2021/04/28 09:24:29;;;;;;;16.33;8.60;;;;;;;;;;5102035;28;20448;-60
2021/04/28 09:26:56;;;;;;;13.00;8.07;;;;;;;;;;5103138;28;20598;-60
2021/04/28 09:29:25;;;;;;;15.00;9.17;;;;;;;;;;5100508;28;20506;-59
2021/04/28 09:31:59;;;;;;;11.10;8.00;;;;;;;;;;5102240;28;20445;-61
2021/04/28 09:34:28;;;;;;;15.50;9.60;;;;;;;;;;5100258;28;20432;-60
2021/04/28 09:37:06;;;;;;;13.27;9.47;;;;;;;;;;5096978;28;20467;-60
2021/04/28 09:39:38;;;;;;;16.70;9.53;;;;;;;;;;5096899;28;20484;-61
2021/04/28 09:42:05;;;;;;;11.13;8.87;;;;;;;;;;5096784;28;20494;-61
2021/04/28 09:44:33;;;;;;;16.83;9.60;;;;;;;;;;5096117;28;20449;-60
2021/04/28 09:47:05;;;;;;;9.97;8.97;;;;;;;;;;5096292;28;20480;-61
2021/04/28 09:49:52;;;;;;;8.63;7.60;;;;;;;;;;5095908;28;20477;-60
2021/04/28 09:52:20;;;;;;;12.90;10.53;;;;;;;;;;5096027;28;20439;-62
2021/04/28 09:54:47;;;;;;;14.10;7.57;;;;;;;;;;5096106;28;20457;-61
2021/04/28 09:57:15;;;;;;;8.50;7.63;;;;;;;;;;5095991;28;20450;-62
2021/04/28 09:59:43;;;;;;;11.67;8.50;;;;;;;;;;5095631;28;20470;-61
2021/04/28 10:02:12;;;;;;;10.40;7.93;;;;;;;;;;5096772;28;20450;-62
2021/04/28 10:04:39;;;;;;;10.83;8.40;;;;;;;;;;5095270;28;20453;-61
2021/04/28 10:07:07;;;;;;;8.90;7.90;;;;;;;;;;5095213;28;20485;-61
2021/04/28 10:09:35;;;;;;;9.97;8.97;;;;;;;;;;5095912;28;20523;-61
2021/04/28 10:12:02;;;;;;;10.87;7.77;;;;;;;;;;5095474;28;20450;-61
2021/04/28 10:14:29;;;;;;;10.33;8.60;;;;;;;;;;5096549;28;20474;-60
2021/04/28 10:16:57;;;;;;;11.07;9.97;;;;;;;;;;5096322;28;20496;-61
2021/04/28 10:19:24;;;;;;;32.77;11.40;;;;;;;;;;5096086;28;21089;-61
2021/04/28 10:21:51;;;;;;;11.50;8.80;;;;;;;;;;5096789;28;20446;-61
2021/04/28 10:24:19;;;;;;;10.20;8.67;;;;;;;;;;5098026;28;20933;-61
2021/04/28 10:26:48;;;;;;;9.70;8.60;;;;;;;;;;5096131;28;20525;-61
2021/04/28 10:29:15;;;;;;;14.20;8.63;;;;;;;;;;5096090;28;20470;-61
2021/04/28 10:31:44;;;;;;;9.60;8.53;;;;;;;;;;5097136;28;20503;-61
2021/04/28 10:34:12;;;;;;;9.47;8.57;;;;;;;;;;5097517;28;20439;-61
2021/04/28 10:36:42;;;;;;;9.17;8.20;;;;;;;;;;5097554;28;20445;-61
2021/04/28 10:39:09;;;;;;;12.17;9.40;;;;;;;;;;5097496;28;20494;-62
2021/04/28 10:41:38;;;;;;;10.10;9.20;;;;;;;;;;5096950;28;20455;-61
2021/04/28 10:44:05;;;;;;;10.83;9.40;;;;;;;;;;5096855;28;20443;-60
2021/04/28 10:46:32;;;;;;;15.63;10.60;;;;;;;;;;5096740;28;20476;-62
2021/04/28 10:49:16;;;;;;;11.03;9.93;;;;;;;;;;5096324;28;20517;-61
2021/04/28 10:51:45;;;;;;;11.50;9.67;;;;;;;;;;5096297;28;20820;-61
2021/04/28 10:54:22;;;;;;;17.80;10.70;;;;;;;;;;5096035;28;20529;-61
2021/04/28 10:56:59;;;;;;;10.90;9.10;;;;;;;;;;5097029;28;20440;-60
2021/04/28 10:59:33;;;;;;;11.33;9.07;;;;;;;;;;5096653;28;20460;-61
2021/04/28 11:02:06;;;;;;;11.40;9.00;;;;;;;;;;5095797;28;20441;-61
2021/04/28 11:04:33;;;;;;;11.37;9.17;;;;;;;;;;5095170;28;20447;-61
2021/04/28 11:07:00;;;;;;;11.70;10.50;;;;;;;;;;5095065;28;20480;-61
2021/04/28 11:09:27;;;;;;;11.47;10.13;;;;;;;;;;5095012;28;20461;-61
2021/04/28 11:12:01;;;;;;;14.07;11.00;;;;;;;;;;5095116;28;20460;-61
2021/04/28 11:14:43;;;;;;;12.90;10.43;;;;;;;;;;5094484;28;20449;-62
2021/04/28 11:17:26;;;;;;;12.50;11.17;;;;;;;;;;5092132;28;20566;-62
2021/04/28 11:19:53;;;;;;;11.73;10.50;;;;;;;;;;5094225;28;20476;-61
2021/04/28 11:22:22;;;;;;;10.80;9.67;;;;;;;;;;5094236;28;20816;-61
2021/04/28 11:24:53;;;;;;;11.93;10.60;;;;;;;;;;5094174;28;20482;-61
2021/04/28 11:27:40;;;;;;;11.40;10.33;;;;;;;;;;5094666;28;20484;-62
2021/04/28 11:30:20;;;;;;;15.60;10.70;;;;;;;;;;5093851;28;20476;-60
2021/04/28 11:33:01;;;;;;;18.37;11.97;;;;;;;;;;5094518;28;20471;-61
2021/04/28 11:35:28;;;;;;;12.33;10.63;;;;;;;;;;5094095;28;20438;-62
2021/04/28 11:38:03;;;;;;;12.87;11.20;;;;;;;;;;5093610;28;20937;-60
2021/04/28 11:40:30;;;;;;;11.77;10.27;;;;;;;;;;5093646;28;20651;-62
2021/04/28 11:42:56;;;;;;;13.27;10.70;;;;;;;;;;5093966;28;20441;-61
2021/04/28 11:45:31;;;;;;;11.57;10.37;;;;;;;;;;5093727;28;20441;-61
2021/04/28 11:47:58;;;;;;;12.60;10.40;;;;;;;;;;5093744;28;20552;-62
2021/04/28 11:50:25;;;;;;;13.40;12.00;;;;;;;;;;5093972;28;20687;-61
2021/04/28 11:52:51;;;;;;;11.97;10.70;;;;;;;;;;5093702;28;20450;-61
2021/04/28 11:55:19;;;;;;;13.53;10.50;;;;;;;;;;5095841;28;20438;-61
2021/04/28 11:57:46;;;;;;;13.10;9.83;;;;;;;;;;5098029;28;20477;-61
2021/04/28 12:00:13;;;;;;;11.93;10.73;;;;;;;;;;5097717;28;20534;-61
2021/04/28 12:02:40;;;;;;;13.87;10.57;;;;;;;;;;5099565;28;20540;-61
2021/04/28 12:05:08;;;;;;;11.23;9.60;;;;;;;;;;5101426;28;20469;-61
2021/04/28 12:07:35;;;;;;;11.23;10.10;;;;;;;;;;5098064;28;20482;-60
2021/04/28 12:10:01;;;;;;;15.70;10.30;;;;;;;;;;5097776;28;20490;-61
2021/04/28 12:12:29;;;;;;;11.40;10.20;;;;;;;;;;5097963;28;20444;-61
2021/04/28 12:15:12;;;;;;;11.57;10.03;;;;;;;;;;5097699;28;20457;-60
2021/04/28 12:17:39;;;;;;;12.83;11.53;;;;;;;;;;5096874;28;20429;-62
2021/04/28 12:20:08;;;;;;;12.03;9.20;;;;;;;;;;5096568;28;20471;-62
2021/04/28 12:22:35;;;;;;;16.30;10.70;;;;;;;;;;5096002;28;20445;-60
2021/04/28 12:25:03;;;;;;;10.63;9.53;;;;;;;;;;5095747;28;20813;-61
2021/04/28 12:27:30;;;;;;;12.60;10.93;;;;;;;;;;5095741;28;20489;-61
2021/04/28 12:29:58;;;;;;;11.43;10.10;;;;;;;;;;5099002;28;20537;-61
2021/04/28 12:32:25;;;;;;;14.73;10.83;;;;;;;;;;5099471;28;20452;-61
2021/04/28 12:35:06;;;;;;;13.77;10.77;;;;;;;;;;5098421;28;20448;-61
2021/04/28 12:37:34;;;;;;;15.40;10.50;;;;;;;;;;5098252;28;20427;-61
2021/04/28 12:40:02;;;;;;;12.00;9.93;;;;;;;;;;5098218;28;20882;-61
2021/04/28 12:42:31;;;;;;;9.70;8.70;;;;;;;;;;5099103;28;20539;-61
2021/04/28 12:44:59;;;;;;;10.77;9.40;;;;;;;;;;5098750;28;20456;-61
2021/04/28 12:47:29;;;;;;;8.43;7.53;;;;;;;;;;5100017;28;20873;-60
2021/04/28 12:50:03;;;;;;;10.40;8.33;;;;;;;;;;5098355;28;20870;-61
2021/04/28 12:52:33;;;;;;;11.52;9.63;;;;;;;;;;5097781;28;20460;-60
2021/04/28 12:55:22;;;;;;;13.00;8.90;;;;;;;;;;5099665;28;20266;-61
2021/04/28 12:57:53;;;;;;;13.10;10.90;;;;;;;;;;5101400;28;20438;-61
2021/04/28 13:00:20;;;;;;;11.37;10.27;;;;;;;;;;5100223;28;20468;-61
2021/04/28 13:03:02;;;;;;;16.60;10.27;;;;;;;;;;5100055;28;20554;-61
2021/04/28 13:05:31;;;;;;;11.70;9.60;;;;;;;;;;5100306;28;20429;-61
2021/04/28 13:08:15;;;;;;;15.13;8.97;;;;;;;;;;5098232;28;20485;-61
2021/04/28 13:10:57;;;;;;;10.33;9.10;;;;;;;;;;5098966;28;20463;-60
2021/04/28 13:13:28;;;;;;;12.47;9.13;;;;;;;;;;5098134;28;20429;-60
2021/04/28 13:15:55;;;;;;;11.33;9.00;;;;;;;;;;5097871;28;20437;-61
2021/04/28 13:18:22;;;;;;;11.30;10.10;;;;;;;;;;5097632;28;20438;-61
2021/04/28 13:20:49;;;;;;;12.87;10.17;;;;;;;;;;5097491;28;20445;-60
2021/04/28 13:23:17;;;;;;;10.47;9.07;;;;;;;;;;5096933;28;20442;-62
2021/04/28 13:25:50;;;;;;;10.80;9.40;;;;;;;;;;5096985;28;20442;-62
2021/04/28 13:28:34;;;;;;;12.00;9.70;;;;;;;;;;5104515;28;20476;-62
2021/04/28 13:31:17;;;;;;;11.23;9.60;;;;;;;;;;5109550;28;20487;-61
2021/04/28 13:33:44;;;;;;;11.10;8.90;;;;;;;;;;5108965;28;20460;-61
2021/04/28 13:36:20;;;;;;;9.77;8.77;;;;;;;;;;5108844;28;20444;-61
2021/04/28 13:38:48;;;;;;;11.33;10.00;;;;;;;;;;5100481;28;20469;-63
2021/04/28 13:41:15;;;;;;;12.10;9.07;;;;;;;;;;5099182;28;20916;-63
2021/04/28 13:43:43;;;;;;;13.03;10.27;;;;;;;;;;5097979;28;20826;-64
2021/04/28 13:46:10;;;;;;;15.57;11.40;;;;;;;;;;5096640;28;20486;-63
2021/04/28 13:48:36;;;;;;;12.17;10.73;;;;;;;;;;5096525;28;20477;-63
2021/04/28 13:51:03;;;;;;;13.43;10.10;;;;;;;;;;5096403;28;20445;-63
2021/04/28 13:53:30;;;;;;;14.00;11.47;;;;;;;;;;5096624;28;20445;-63
2021/04/28 13:55:57;;;;;;;11.17;9.97;;;;;;;;;;5096558;28;20445;-64
2021/04/28 13:58:24;;;;;;;11.13;10.03;;;;;;;;;;5096819;28;20438;-63
2021/04/28 14:00:51;;;;;;;10.00;8.83;;;;;;;;;;5096151;28;20448;-61
2021/04/28 14:03:18;;;;;;;11.40;10.20;;;;;;;;;;5096437;28;20519;-61
2021/04/28 14:05:45;;;;;;;10.70;9.60;;;;;;;;;;5095694;28;20453;-61
2021/04/28 14:08:12;;;;;;;10.70;8.87;;;;;;;;;;5095660;28;20462;-60
2021/04/28 14:10:38;;;;;;;14.47;9.53;;;;;;;;;;5096059;28;20977;-60
2021/04/28 14:13:05;;;;;;;10.43;9.30;;;;;;;;;;5095534;28;20443;-61
2021/04/28 14:15:32;;;;;;;10.23;9.10;;;;;;;;;;5095878;28;20560;-61
2021/04/28 14:17:59;;;;;;;13.53;9.63;;;;;;;;;;5095388;28;20436;-61
2021/04/28 14:20:26;;;;;;;14.10;10.50;;;;;;;;;;5095185;28;20863;-61
2021/04/28 14:22:53;;;;;;;12.43;10.33;;;;;;;;;;5095570;28;20816;-62
2021/04/28 14:25:20;;;;;;;11.73;10.53;;;;;;;;;;5095323;28;20926;-61
2021/04/28 14:27:46;;;;;;;14.00;8.67;;;;;;;;;;5094479;28;20477;-62
2021/04/28 14:30:14;;;;;;;9.63;8.13;;;;;;;;;;5094716;28;20515;-61
2021/04/28 14:32:41;;;;;;;9.53;8.50;;;;;;;;;;5095274;28;20452;-61
2021/04/28 14:35:09;;;;;;;8.63;7.73;;;;;;;;;;5095151;28;20502;-61